sensor_id;sensor_type;location;lat;lon;timestamp;temperature;humidity
56512;DHT22;42408;53.238;5.686;2022-08-05T00:00:45;17.90;99.90
56512;DHT22;42408;53.238;5.686;2022-08-05T00:03:11;17.80;99.90
56512;DHT22;42408;53.238;5.686;2022-08-05T00:05:36;17.80;99.90
56512;DHT22;42408;53.238;5.686;2022-08-05T00:08:02;17.90;99.90
56512;DHT22;42408;53.238;5.686;2022-08-05T00:10:28;17.80;99.90
56512;DHT22;42408;53.238;5.686;2022-08-05T00:12:53;17.90;99.90
56512;DHT22;42408;53.238;5.686;2022-08-05T00:15:19;17.90;99.90
56512;DHT22;42408;53.238;5.686;2022-08-05T00:17:46;17.90;99.90
56512;DHT22;42408;53.238;5.686;2022-08-05T00:20:11;17.90;99.90
56512;DHT22;42408;53.238;5.686;2022-08-05T00:22:37;17.90;99.90
56512;DHT22;42408;53.238;5.686;2022-08-05T00:25:03;17.90;99.90
56512;DHT22;42408;53.238;5.686;2022-08-05T00:27:29;17.90;99.90
56512;DHT22;42408;53.238;5.686;2022-08-05T00:29:55;17.90;99.90
56512;DHT22;42408;53.238;5.686;2022-08-05T00:32:21;17.80;99.90
56512;DHT22;42408;53.238;5.686;2022-08-05T00:34:46;17.90;99.90
56512;DHT22;42408;53.238;5.686;2022-08-05T00:37:12;17.90;99.90
56512;DHT22;42408;53.238;5.686;2022-08-05T00:39:38;17.80;99.90
56512;DHT22;42408;53.238;5.686;2022-08-05T00:42:04;17.80;99.90
56512;DHT22;42408;53.238;5.686;2022-08-05T00:44:30;17.80;99.90
56512;DHT22;42408;53.238;5.686;2022-08-05T00:46:55;17.80;99.90
56512;DHT22;42408;53.238;5.686;2022-08-05T00:49:21;17.70;99.90
56512;DHT22;42408;53.238;5.686;2022-08-05T00:51:46;17.80;99.90
56512;DHT22;42408;53.238;5.686;2022-08-05T00:54:12;17.70;99.90
56512;DHT22;42408;53.238;5.686;2022-08-05T00:56:38;17.70;99.90
56512;DHT22;42408;53.238;5.686;2022-08-05T00:59:04;17.70;99.90
56512;DHT22;42408;53.238;5.686;2022-08-05T01:01:30;17.70;99.90
56512;DHT22;42408;53.238;5.686;2022-08-05T01:03:55;17.70;99.90
56512;DHT22;42408;53.238;5.686;2022-08-05T01:06:21;17.60;99.90
56512;DHT22;42408;53.238;5.686;2022-08-05T01:08:47;17.70;99.90
56512;DHT22;42408;53.238;5.686;2022-08-05T01:11:22;17.70;99.90
56512;DHT22;42408;53.238;5.686;2022-08-05T01:14:04;17.90;99.90
56512;DHT22;42408;53.238;5.686;2022-08-05T01:19:29;17.60;99.90
56512;DHT22;42408;53.238;5.686;2022-08-05T01:24:50;17.60;99.90
56512;DHT22;42408;53.238;5.686;2022-08-05T01:30:04;17.60;99.90
56512;DHT22;42408;53.238;5.686;2022-08-05T01:32:35;17.60;99.90
56512;DHT22;42408;53.238;5.686;2022-08-05T01:35:09;17.60;99.90
56512;DHT22;42408;53.238;5.686;2022-08-05T01:37:52;17.50;99.90
56512;DHT22;42408;53.238;5.686;2022-08-05T01:40:20;17.50;99.90
56512;DHT22;42408;53.238;5.686;2022-08-05T01:42:48;17.50;99.90
56512;DHT22;42408;53.238;5.686;2022-08-05T01:45:15;17.50;99.90
56512;DHT22;42408;53.238;5.686;2022-08-05T01:47:43;17.40;99.90
56512;DHT22;42408;53.238;5.686;2022-08-05T01:50:19;17.40;99.90
56512;DHT22;42408;53.238;5.686;2022-08-05T01:52:47;17.30;99.90
56512;DHT22;42408;53.238;5.686;2022-08-05T01:55:16;17.30;99.90
56512;DHT22;42408;53.238;5.686;2022-08-05T01:57:44;17.30;99.90
56512;DHT22;42408;53.238;5.686;2022-08-05T02:00:11;17.30;99.90
56512;DHT22;42408;53.238;5.686;2022-08-05T02:02:47;17.20;99.90
56512;DHT22;42408;53.238;5.686;2022-08-05T02:05:14;17.20;99.90
56512;DHT22;42408;53.238;5.686;2022-08-05T02:07:41;17.10;99.90
56512;DHT22;42408;53.238;5.686;2022-08-05T02:10:08;17.10;99.90
56512;DHT22;42408;53.238;5.686;2022-08-05T02:12:52;17.10;99.90
56512;DHT22;42408;53.238;5.686;2022-08-05T02:15:28;17.20;99.90
56512;DHT22;42408;53.238;5.686;2022-08-05T02:18:09;17.10;99.90
56512;DHT22;42408;53.238;5.686;2022-08-05T02:23:23;17.20;99.90
56512;DHT22;42408;53.238;5.686;2022-08-05T02:25:51;17.20;99.90
56512;DHT22;42408;53.238;5.686;2022-08-05T02:28:24;17.30;99.90
56512;DHT22;42408;53.238;5.686;2022-08-05T02:31:01;17.20;99.90
56512;DHT22;42408;53.238;5.686;2022-08-05T02:33:28;17.20;99.90
56512;DHT22;42408;53.238;5.686;2022-08-05T02:35:55;17.30;99.90
56512;DHT22;42408;53.238;5.686;2022-08-05T02:38:23;17.30;99.90
56512;DHT22;42408;53.238;5.686;2022-08-05T02:40:50;17.20;99.90
56512;DHT22;42408;53.238;5.686;2022-08-05T02:43:19;17.20;99.90
56512;DHT22;42408;53.238;5.686;2022-08-05T02:45:46;17.20;99.90
56512;DHT22;42408;53.238;5.686;2022-08-05T02:48:15;17.10;99.90
56512;DHT22;42408;53.238;5.686;2022-08-05T02:50:42;17.20;99.90
56512;DHT22;42408;53.238;5.686;2022-08-05T02:53:07;17.10;99.90
56512;DHT22;42408;53.238;5.686;2022-08-05T02:55:34;17.20;99.90
56512;DHT22;42408;53.238;5.686;2022-08-05T02:58:00;17.20;99.90
56512;DHT22;42408;53.238;5.686;2022-08-05T03:00:28;17.20;99.90
56512;DHT22;42408;53.238;5.686;2022-08-05T03:02:55;17.20;99.90
56512;DHT22;42408;53.238;5.686;2022-08-05T03:05:21;17.30;99.90
56512;DHT22;42408;53.238;5.686;2022-08-05T03:07:48;17.30;99.90
56512;DHT22;42408;53.238;5.686;2022-08-05T03:10:14;17.30;99.90
56512;DHT22;42408;53.238;5.686;2022-08-05T03:12:40;17.30;99.90
56512;DHT22;42408;53.238;5.686;2022-08-05T03:15:08;17.30;99.90
56512;DHT22;42408;53.238;5.686;2022-08-05T03:17:35;17.30;99.90
56512;DHT22;42408;53.238;5.686;2022-08-05T03:20:02;17.30;99.90
56512;DHT22;42408;53.238;5.686;2022-08-05T03:22:28;17.30;99.90
56512;DHT22;42408;53.238;5.686;2022-08-05T03:24:54;17.30;99.90
56512;DHT22;42408;53.238;5.686;2022-08-05T03:27:21;17.30;99.90
56512;DHT22;42408;53.238;5.686;2022-08-05T03:29:47;17.30;99.90
56512;DHT22;42408;53.238;5.686;2022-08-05T03:32:13;17.20;99.90
56512;DHT22;42408;53.238;5.686;2022-08-05T03:34:44;17.20;99.90
56512;DHT22;42408;53.238;5.686;2022-08-05T03:37:10;17.20;99.90
56512;DHT22;42408;53.238;5.686;2022-08-05T03:39:36;17.20;99.90
56512;DHT22;42408;53.238;5.686;2022-08-05T03:42:02;17.20;99.90
56512;DHT22;42408;53.238;5.686;2022-08-05T03:44:28;17.10;99.90
56512;DHT22;42408;53.238;5.686;2022-08-05T03:46:54;17.10;99.90
56512;DHT22;42408;53.238;5.686;2022-08-05T03:49:19;17.10;99.90
56512;DHT22;42408;53.238;5.686;2022-08-05T03:51:57;17.10;99.90
56512;DHT22;42408;53.238;5.686;2022-08-05T03:54:44;17.00;99.90
56512;DHT22;42408;53.238;5.686;2022-08-05T03:57:13;17.10;99.90
56512;DHT22;42408;53.238;5.686;2022-08-05T03:59:43;17.30;99.90
56512;DHT22;42408;53.238;5.686;2022-08-05T04:02:11;17.10;99.90
56512;DHT22;42408;53.238;5.686;2022-08-05T04:04:38;17.00;99.90
56512;DHT22;42408;53.238;5.686;2022-08-05T04:07:04;17.00;99.90
56512;DHT22;42408;53.238;5.686;2022-08-05T04:09:31;17.00;99.90
56512;DHT22;42408;53.238;5.686;2022-08-05T04:11:57;17.00;99.90
56512;DHT22;42408;53.238;5.686;2022-08-05T04:14:24;17.00;99.90
56512;DHT22;42408;53.238;5.686;2022-08-05T04:16:50;17.00;99.90
56512;DHT22;42408;53.238;5.686;2022-08-05T04:19:17;16.90;99.90
56512;DHT22;42408;53.238;5.686;2022-08-05T04:21:42;17.00;99.90
56512;DHT22;42408;53.238;5.686;2022-08-05T04:24:08;17.00;99.90
56512;DHT22;42408;53.238;5.686;2022-08-05T04:26:34;17.10;99.90
56512;DHT22;42408;53.238;5.686;2022-08-05T04:29:00;17.00;99.90
56512;DHT22;42408;53.238;5.686;2022-08-05T04:31:26;17.00;99.90
56512;DHT22;42408;53.238;5.686;2022-08-05T04:33:51;17.10;99.90
56512;DHT22;42408;53.238;5.686;2022-08-05T04:36:17;17.10;99.90
56512;DHT22;42408;53.238;5.686;2022-08-05T04:38:43;17.10;99.90
56512;DHT22;42408;53.238;5.686;2022-08-05T04:41:09;17.10;99.90
56512;DHT22;42408;53.238;5.686;2022-08-05T04:43:34;17.20;99.90
56512;DHT22;42408;53.238;5.686;2022-08-05T04:46:00;17.10;99.90
56512;DHT22;42408;53.238;5.686;2022-08-05T04:48:26;17.10;99.90
56512;DHT22;42408;53.238;5.686;2022-08-05T04:50:52;17.10;99.90
56512;DHT22;42408;53.238;5.686;2022-08-05T04:53:18;17.10;99.90
56512;DHT22;42408;53.238;5.686;2022-08-05T04:55:44;17.20;99.90
56512;DHT22;42408;53.238;5.686;2022-08-05T04:58:15;17.10;99.90
56512;DHT22;42408;53.238;5.686;2022-08-05T05:00:41;17.10;99.90
56512;DHT22;42408;53.238;5.686;2022-08-05T05:03:08;17.20;99.90
56512;DHT22;42408;53.238;5.686;2022-08-05T05:05:35;17.10;99.90
56512;DHT22;42408;53.238;5.686;2022-08-05T05:08:02;17.10;99.90
56512;DHT22;42408;53.238;5.686;2022-08-05T05:10:30;17.10;99.90
56512;DHT22;42408;53.238;5.686;2022-08-05T05:12:56;17.10;99.90
56512;DHT22;42408;53.238;5.686;2022-08-05T05:15:22;17.10;99.90
56512;DHT22;42408;53.238;5.686;2022-08-05T05:17:48;17.00;99.90
56512;DHT22;42408;53.238;5.686;2022-08-05T05:20:14;17.00;99.90
56512;DHT22;42408;53.238;5.686;2022-08-05T05:22:40;17.00;99.90
56512;DHT22;42408;53.238;5.686;2022-08-05T05:25:06;17.00;99.90
56512;DHT22;42408;53.238;5.686;2022-08-05T05:27:33;17.00;99.90
56512;DHT22;42408;53.238;5.686;2022-08-05T05:29:59;17.00;99.90
56512;DHT22;42408;53.238;5.686;2022-08-05T05:32:25;17.00;99.90
56512;DHT22;42408;53.238;5.686;2022-08-05T05:34:51;16.90;99.90
56512;DHT22;42408;53.238;5.686;2022-08-05T05:37:17;16.90;99.90
56512;DHT22;42408;53.238;5.686;2022-08-05T05:39:43;16.90;99.90
56512;DHT22;42408;53.238;5.686;2022-08-05T05:42:08;17.00;99.90
56512;DHT22;42408;53.238;5.686;2022-08-05T05:44:34;17.00;99.90
56512;DHT22;42408;53.238;5.686;2022-08-05T05:47:00;17.00;99.90
56512;DHT22;42408;53.238;5.686;2022-08-05T05:49:26;17.00;99.90
56512;DHT22;42408;53.238;5.686;2022-08-05T05:51:53;17.00;99.90
56512;DHT22;42408;53.238;5.686;2022-08-05T05:54:18;17.00;99.90
56512;DHT22;42408;53.238;5.686;2022-08-05T05:56:44;17.00;99.90
56512;DHT22;42408;53.238;5.686;2022-08-05T05:59:10;17.00;99.90
56512;DHT22;42408;53.238;5.686;2022-08-05T06:01:38;17.10;99.90
56512;DHT22;42408;53.238;5.686;2022-08-05T06:04:05;17.10;99.90
56512;DHT22;42408;53.238;5.686;2022-08-05T06:06:31;17.10;99.90
56512;DHT22;42408;53.238;5.686;2022-08-05T06:08:57;17.20;99.90
56512;DHT22;42408;53.238;5.686;2022-08-05T06:11:23;17.30;99.90
56512;DHT22;42408;53.238;5.686;2022-08-05T06:13:48;17.40;99.90
56512;DHT22;42408;53.238;5.686;2022-08-05T06:16:14;17.30;99.90
56512;DHT22;42408;53.238;5.686;2022-08-05T06:18:40;17.40;99.90
56512;DHT22;42408;53.238;5.686;2022-08-05T06:21:05;17.40;99.90
56512;DHT22;42408;53.238;5.686;2022-08-05T06:23:31;17.50;99.90
56512;DHT22;42408;53.238;5.686;2022-08-05T06:25:57;17.60;99.90
56512;DHT22;42408;53.238;5.686;2022-08-05T06:28:22;17.80;99.90
56512;DHT22;42408;53.238;5.686;2022-08-05T06:30:48;18.40;99.90
56512;DHT22;42408;53.238;5.686;2022-08-05T06:33:14;19.10;99.90
56512;DHT22;42408;53.238;5.686;2022-08-05T06:35:39;20.30;99.90
56512;DHT22;42408;53.238;5.686;2022-08-05T06:38:05;21.40;99.90
56512;DHT22;42408;53.238;5.686;2022-08-05T06:40:30;22.50;99.90
56512;DHT22;42408;53.238;5.686;2022-08-05T06:42:56;23.40;99.90
56512;DHT22;42408;53.238;5.686;2022-08-05T06:45:22;24.20;99.90
56512;DHT22;42408;53.238;5.686;2022-08-05T06:47:48;24.80;99.90
56512;DHT22;42408;53.238;5.686;2022-08-05T06:50:13;25.20;99.90
56512;DHT22;42408;53.238;5.686;2022-08-05T06:52:39;25.70;99.90
56512;DHT22;42408;53.238;5.686;2022-08-05T06:55:05;26.10;99.90
56512;DHT22;42408;53.238;5.686;2022-08-05T06:57:31;26.30;99.90
56512;DHT22;42408;53.238;5.686;2022-08-05T06:59:57;26.50;99.90
56512;DHT22;42408;53.238;5.686;2022-08-05T07:02:23;26.90;99.90
56512;DHT22;42408;53.238;5.686;2022-08-05T07:04:48;27.30;99.90
56512;DHT22;42408;53.238;5.686;2022-08-05T07:07:14;27.60;99.90
56512;DHT22;42408;53.238;5.686;2022-08-05T07:09:39;27.50;99.50
56512;DHT22;42408;53.238;5.686;2022-08-05T07:12:05;26.80;98.40
56512;DHT22;42408;53.238;5.686;2022-08-05T07:14:31;26.10;99.10
56512;DHT22;42408;53.238;5.686;2022-08-05T07:17:15;25.40;99.60
56512;DHT22;42408;53.238;5.686;2022-08-05T07:19:41;25.10;99.90
56512;DHT22;42408;53.238;5.686;2022-08-05T07:22:07;25.20;99.90
56512;DHT22;42408;53.238;5.686;2022-08-05T07:24:32;25.40;99.90
56512;DHT22;42408;53.238;5.686;2022-08-05T07:26:58;25.70;99.90
56512;DHT22;42408;53.238;5.686;2022-08-05T07:29:23;26.10;99.90
56512;DHT22;42408;53.238;5.686;2022-08-05T07:31:49;26.40;99.90
56512;DHT22;42408;53.238;5.686;2022-08-05T07:34:15;26.60;99.40
56512;DHT22;42408;53.238;5.686;2022-08-05T07:36:40;26.30;98.30
56512;DHT22;42408;53.238;5.686;2022-08-05T07:39:07;26.00;99.30
56512;DHT22;42408;53.238;5.686;2022-08-05T07:41:33;26.20;99.10
56512;DHT22;42408;53.238;5.686;2022-08-05T07:43:59;26.30;98.50
56512;DHT22;42408;53.238;5.686;2022-08-05T07:46:27;26.20;99.30
56512;DHT22;42408;53.238;5.686;2022-08-05T07:48:55;25.90;99.90
56512;DHT22;42408;53.238;5.686;2022-08-05T07:51:21;25.30;99.90
56512;DHT22;42408;53.238;5.686;2022-08-05T07:53:47;25.20;99.90
56512;DHT22;42408;53.238;5.686;2022-08-05T07:56:12;25.00;99.90
56512;DHT22;42408;53.238;5.686;2022-08-05T07:58:38;24.90;99.90
56512;DHT22;42408;53.238;5.686;2022-08-05T08:01:04;25.30;99.90
56512;DHT22;42408;53.238;5.686;2022-08-05T08:03:30;25.50;99.20
56512;DHT22;42408;53.238;5.686;2022-08-05T08:05:56;25.70;98.20
56512;DHT22;42408;53.238;5.686;2022-08-05T08:08:21;26.10;99.00
56512;DHT22;42408;53.238;5.686;2022-08-05T08:10:47;26.30;99.20
56512;DHT22;42408;53.238;5.686;2022-08-05T08:13:13;26.30;96.40
56512;DHT22;42408;53.238;5.686;2022-08-05T08:15:38;26.20;94.60
56512;DHT22;42408;53.238;5.686;2022-08-05T08:18:04;26.40;94.60
56512;DHT22;42408;53.238;5.686;2022-08-05T08:20:30;26.60;95.30
56512;DHT22;42408;53.238;5.686;2022-08-05T08:22:57;26.60;94.60
56512;DHT22;42408;53.238;5.686;2022-08-05T08:25:32;26.60;93.40
56512;DHT22;42408;53.238;5.686;2022-08-05T08:27:59;26.50;93.70
56512;DHT22;42408;53.238;5.686;2022-08-05T08:30:25;26.60;93.20
56512;DHT22;42408;53.238;5.686;2022-08-05T08:32:51;26.60;85.90
56512;DHT22;42408;53.238;5.686;2022-08-05T08:35:16;26.70;91.10
56512;DHT22;42408;53.238;5.686;2022-08-05T08:37:42;26.60;90.90
56512;DHT22;42408;53.238;5.686;2022-08-05T08:40:08;26.60;91.40
56512;DHT22;42408;53.238;5.686;2022-08-05T08:42:34;26.80;92.40
56512;DHT22;42408;53.238;5.686;2022-08-05T08:45:02;26.80;90.50
56512;DHT22;42408;53.238;5.686;2022-08-05T08:47:28;26.90;87.80
56512;DHT22;42408;53.238;5.686;2022-08-05T08:49:56;26.90;86.20
56512;DHT22;42408;53.238;5.686;2022-08-05T08:52:30;26.80;84.70
56512;DHT22;42408;53.238;5.686;2022-08-05T08:54:56;26.90;87.00
56512;DHT22;42408;53.238;5.686;2022-08-05T08:57:22;26.70;83.00
56512;DHT22;42408;53.238;5.686;2022-08-05T08:59:49;26.60;82.40
56512;DHT22;42408;53.238;5.686;2022-08-05T09:02:15;26.50;83.90
56512;DHT22;42408;53.238;5.686;2022-08-05T09:04:44;26.60;84.20
56512;DHT22;42408;53.238;5.686;2022-08-05T09:07:09;26.60;84.60
56512;DHT22;42408;53.238;5.686;2022-08-05T09:09:36;26.70;86.90
56512;DHT22;42408;53.238;5.686;2022-08-05T09:12:03;26.80;86.70
56512;DHT22;42408;53.238;5.686;2022-08-05T09:14:34;26.90;85.50
56512;DHT22;42408;53.238;5.686;2022-08-05T09:17:01;26.90;83.70
56512;DHT22;42408;53.238;5.686;2022-08-05T09:19:28;26.90;82.50
56512;DHT22;42408;53.238;5.686;2022-08-05T09:21:54;26.90;80.00
56512;DHT22;42408;53.238;5.686;2022-08-05T09:24:19;26.80;78.80
56512;DHT22;42408;53.238;5.686;2022-08-05T09:26:46;26.90;78.70
56512;DHT22;42408;53.238;5.686;2022-08-05T09:29:14;26.90;80.40
56512;DHT22;42408;53.238;5.686;2022-08-05T09:31:40;26.90;80.30
56512;DHT22;42408;53.238;5.686;2022-08-05T09:34:09;26.90;80.60
56512;DHT22;42408;53.238;5.686;2022-08-05T09:39:06;26.80;81.20
56512;DHT22;42408;53.238;5.686;2022-08-05T09:41:32;26.80;81.80
56512;DHT22;42408;53.238;5.686;2022-08-05T09:43:57;26.80;82.60
56512;DHT22;42408;53.238;5.686;2022-08-05T09:46:30;26.70;78.10
56512;DHT22;42408;53.238;5.686;2022-08-05T09:48:57;26.40;77.90
56512;DHT22;42408;53.238;5.686;2022-08-05T09:51:36;26.30;80.50
56512;DHT22;42408;53.238;5.686;2022-08-05T09:54:05;26.20;77.40
56512;DHT22;42408;53.238;5.686;2022-08-05T09:56:35;26.10;81.70
56512;DHT22;42408;53.238;5.686;2022-08-05T09:59:07;25.90;83.20
56512;DHT22;42408;53.238;5.686;2022-08-05T10:01:35;25.80;84.60
56512;DHT22;42408;53.238;5.686;2022-08-05T10:04:04;25.70;84.50
56512;DHT22;42408;53.238;5.686;2022-08-05T10:06:31;25.50;82.50
56512;DHT22;42408;53.238;5.686;2022-08-05T10:11:34;25.40;84.50
56512;DHT22;42408;53.238;5.686;2022-08-05T10:14:23;25.30;83.80
56512;DHT22;42408;53.238;5.686;2022-08-05T10:16:49;25.40;83.00
56512;DHT22;42408;53.238;5.686;2022-08-05T10:19:15;25.40;84.90
56512;DHT22;42408;53.238;5.686;2022-08-05T10:21:41;25.40;80.80
56512;DHT22;42408;53.238;5.686;2022-08-05T10:24:10;25.20;80.80
56512;DHT22;42408;53.238;5.686;2022-08-05T10:26:44;25.10;81.30
56512;DHT22;42408;53.238;5.686;2022-08-05T10:29:10;25.00;83.40
56512;DHT22;42408;53.238;5.686;2022-08-05T10:31:36;24.90;80.70
56512;DHT22;42408;53.238;5.686;2022-08-05T10:34:05;24.80;82.70
56512;DHT22;42408;53.238;5.686;2022-08-05T10:36:32;24.60;84.90
56512;DHT22;42408;53.238;5.686;2022-08-05T10:39:03;24.80;87.20
56512;DHT22;42408;53.238;5.686;2022-08-05T10:41:42;25.00;84.80
56512;DHT22;42408;53.238;5.686;2022-08-05T10:44:12;25.20;82.80
56512;DHT22;42408;53.238;5.686;2022-08-05T10:46:47;25.20;84.30
56512;DHT22;42408;53.238;5.686;2022-08-05T10:49:12;25.00;81.30
56512;DHT22;42408;53.238;5.686;2022-08-05T10:51:49;24.90;80.50
56512;DHT22;42408;53.238;5.686;2022-08-05T10:54:17;25.00;84.10
56512;DHT22;42408;53.238;5.686;2022-08-05T10:56:50;24.80;83.10
56512;DHT22;42408;53.238;5.686;2022-08-05T10:59:23;24.80;84.20
56512;DHT22;42408;53.238;5.686;2022-08-05T11:02:13;24.90;83.10
56512;DHT22;42408;53.238;5.686;2022-08-05T11:04:53;25.00;79.90
56512;DHT22;42408;53.238;5.686;2022-08-05T11:07:19;24.80;83.30
56512;DHT22;42408;53.238;5.686;2022-08-05T11:09:49;24.60;82.50
56512;DHT22;42408;53.238;5.686;2022-08-05T11:15:07;24.10;85.80
56512;DHT22;42408;53.238;5.686;2022-08-05T11:17:35;23.90;87.40
56512;DHT22;42408;53.238;5.686;2022-08-05T11:20:05;23.70;89.20
56512;DHT22;42408;53.238;5.686;2022-08-05T11:22:46;23.70;89.50
56512;DHT22;42408;53.238;5.686;2022-08-05T11:25:32;23.60;89.10
56512;DHT22;42408;53.238;5.686;2022-08-05T11:33:34;23.30;90.20
56512;DHT22;42408;53.238;5.686;2022-08-05T11:36:02;23.20;90.00
56512;DHT22;42408;53.238;5.686;2022-08-05T11:43:56;23.00;91.30
56512;DHT22;42408;53.238;5.686;2022-08-05T11:49:03;23.20;90.30
56512;DHT22;42408;53.238;5.686;2022-08-05T11:51:30;23.20;90.30
56512;DHT22;42408;53.238;5.686;2022-08-05T11:53:56;23.20;89.60
56512;DHT22;42408;53.238;5.686;2022-08-05T11:56:23;23.10;90.10
56512;DHT22;42408;53.238;5.686;2022-08-05T11:58:49;23.30;90.90
56512;DHT22;42408;53.238;5.686;2022-08-05T12:01:20;23.30;91.70
56512;DHT22;42408;53.238;5.686;2022-08-05T12:03:51;23.20;91.20
56512;DHT22;42408;53.238;5.686;2022-08-05T12:06:24;23.20;90.30
56512;DHT22;42408;53.238;5.686;2022-08-05T12:08:52;23.10;91.70
56512;DHT22;42408;53.238;5.686;2022-08-05T12:11:28;23.10;91.20
56512;DHT22;42408;53.238;5.686;2022-08-05T12:14:00;23.20;91.40
56512;DHT22;42408;53.238;5.686;2022-08-05T12:16:34;23.30;90.70
56512;DHT22;42408;53.238;5.686;2022-08-05T12:19:00;23.60;92.60
56512;DHT22;42408;53.238;5.686;2022-08-05T12:21:27;23.60;92.10
56512;DHT22;42408;53.238;5.686;2022-08-05T12:26:50;23.50;91.30
56512;DHT22;42408;53.238;5.686;2022-08-05T12:29:20;23.50;91.10
56512;DHT22;42408;53.238;5.686;2022-08-05T12:34:14;23.70;91.80
56512;DHT22;42408;53.238;5.686;2022-08-05T12:36:41;23.70;91.50
56512;DHT22;42408;53.238;5.686;2022-08-05T12:39:07;23.70;91.50
56512;DHT22;42408;53.238;5.686;2022-08-05T12:41:35;23.60;90.60
56512;DHT22;42408;53.238;5.686;2022-08-05T12:44:06;23.30;91.30
56512;DHT22;42408;53.238;5.686;2022-08-05T12:46:35;23.00;93.30
56512;DHT22;42408;53.238;5.686;2022-08-05T12:49:13;22.70;94.30
56512;DHT22;42408;53.238;5.686;2022-08-05T12:54:08;22.20;95.30
56512;DHT22;42408;53.238;5.686;2022-08-05T12:56:40;22.00;95.90
56512;DHT22;42408;53.238;5.686;2022-08-05T13:01:52;21.70;95.60
56512;DHT22;42408;53.238;5.686;2022-08-05T13:04:19;21.60;96.30
56512;DHT22;42408;53.238;5.686;2022-08-05T13:06:45;21.70;96.90
56512;DHT22;42408;53.238;5.686;2022-08-05T13:09:11;21.70;96.70
56512;DHT22;42408;53.238;5.686;2022-08-05T13:11:40;21.60;97.40
56512;DHT22;42408;53.238;5.686;2022-08-05T13:16:57;21.60;97.00
56512;DHT22;42408;53.238;5.686;2022-08-05T13:19:27;21.50;98.50
56512;DHT22;42408;53.238;5.686;2022-08-05T13:21:53;21.60;95.70
56512;DHT22;42408;53.238;5.686;2022-08-05T13:24:20;21.40;96.40
56512;DHT22;42408;53.238;5.686;2022-08-05T13:26:47;21.50;97.30
56512;DHT22;42408;53.238;5.686;2022-08-05T13:29:13;21.70;97.60
56512;DHT22;42408;53.238;5.686;2022-08-05T13:31:39;21.80;96.20
56512;DHT22;42408;53.238;5.686;2022-08-05T13:34:06;22.00;96.20
56512;DHT22;42408;53.238;5.686;2022-08-05T13:36:32;22.10;95.00
56512;DHT22;42408;53.238;5.686;2022-08-05T13:38:59;22.10;94.70
56512;DHT22;42408;53.238;5.686;2022-08-05T13:41:24;22.20;94.60
56512;DHT22;42408;53.238;5.686;2022-08-05T13:43:50;22.30;95.00
56512;DHT22;42408;53.238;5.686;2022-08-05T13:46:16;22.30;94.30
56512;DHT22;42408;53.238;5.686;2022-08-05T13:48:42;22.40;93.60
56512;DHT22;42408;53.238;5.686;2022-08-05T13:51:09;22.50;94.20
56512;DHT22;42408;53.238;5.686;2022-08-05T13:53:35;22.60;93.60
56512;DHT22;42408;53.238;5.686;2022-08-05T13:56:01;22.60;91.70
56512;DHT22;42408;53.238;5.686;2022-08-05T13:58:27;22.60;91.80
56512;DHT22;42408;53.238;5.686;2022-08-05T14:00:53;22.50;91.50
56512;DHT22;42408;53.238;5.686;2022-08-05T14:03:19;22.60;92.20
56512;DHT22;42408;53.238;5.686;2022-08-05T14:05:45;22.70;92.00
56512;DHT22;42408;53.238;5.686;2022-08-05T14:08:11;22.50;91.60
56512;DHT22;42408;53.238;5.686;2022-08-05T14:10:36;22.60;92.90
56512;DHT22;42408;53.238;5.686;2022-08-05T14:13:03;22.60;93.70
56512;DHT22;42408;53.238;5.686;2022-08-05T14:15:31;22.70;92.40
56512;DHT22;42408;53.238;5.686;2022-08-05T14:17:57;22.70;92.80
56512;DHT22;42408;53.238;5.686;2022-08-05T14:20:22;22.80;93.70
56512;DHT22;42408;53.238;5.686;2022-08-05T14:22:48;22.80;95.60
56512;DHT22;42408;53.238;5.686;2022-08-05T14:25:13;22.70;94.50
56512;DHT22;42408;53.238;5.686;2022-08-05T14:27:39;22.80;94.70
56512;DHT22;42408;53.238;5.686;2022-08-05T14:30:05;22.90;95.20
56512;DHT22;42408;53.238;5.686;2022-08-05T14:32:31;22.70;94.10
56512;DHT22;42408;53.238;5.686;2022-08-05T14:34:58;22.70;94.30
56512;DHT22;42408;53.238;5.686;2022-08-05T14:37:24;22.50;92.70
56512;DHT22;42408;53.238;5.686;2022-08-05T14:39:49;22.40;94.10
56512;DHT22;42408;53.238;5.686;2022-08-05T14:42:15;22.40;94.20
56512;DHT22;42408;53.238;5.686;2022-08-05T14:44:41;22.30;93.80
56512;DHT22;42408;53.238;5.686;2022-08-05T14:47:06;22.30;93.40
56512;DHT22;42408;53.238;5.686;2022-08-05T14:49:32;22.30;93.70
56512;DHT22;42408;53.238;5.686;2022-08-05T14:51:57;22.40;93.40
56512;DHT22;42408;53.238;5.686;2022-08-05T14:54:23;22.40;92.00
56512;DHT22;42408;53.238;5.686;2022-08-05T14:56:49;22.40;91.50
56512;DHT22;42408;53.238;5.686;2022-08-05T14:59:14;22.50;91.60
56512;DHT22;42408;53.238;5.686;2022-08-05T15:01:40;22.60;92.10
56512;DHT22;42408;53.238;5.686;2022-08-05T15:04:06;22.70;92.00
56512;DHT22;42408;53.238;5.686;2022-08-05T15:06:37;22.70;91.20
56512;DHT22;42408;53.238;5.686;2022-08-05T15:09:02;22.70;91.30
56512;DHT22;42408;53.238;5.686;2022-08-05T15:11:30;22.80;91.70
56512;DHT22;42408;53.238;5.686;2022-08-05T15:13:55;22.70;91.40
56512;DHT22;42408;53.238;5.686;2022-08-05T15:16:21;22.50;90.90
56512;DHT22;42408;53.238;5.686;2022-08-05T15:18:46;22.40;91.80
56512;DHT22;42408;53.238;5.686;2022-08-05T15:21:12;22.30;92.90
56512;DHT22;42408;53.238;5.686;2022-08-05T15:23:38;22.10;93.20
56512;DHT22;42408;53.238;5.686;2022-08-05T15:26:03;22.00;93.40
56512;DHT22;42408;53.238;5.686;2022-08-05T15:28:29;21.90;94.10
56512;DHT22;42408;53.238;5.686;2022-08-05T15:30:57;21.80;95.40
56512;DHT22;42408;53.238;5.686;2022-08-05T15:33:23;21.70;96.70
56512;DHT22;42408;53.238;5.686;2022-08-05T15:35:48;21.60;97.30
56512;DHT22;42408;53.238;5.686;2022-08-05T15:38:17;21.50;97.80
56512;DHT22;42408;53.238;5.686;2022-08-05T15:40:42;21.40;97.50
56512;DHT22;42408;53.238;5.686;2022-08-05T15:43:08;21.30;97.60
56512;DHT22;42408;53.238;5.686;2022-08-05T15:45:34;21.30;97.90
56512;DHT22;42408;53.238;5.686;2022-08-05T15:48:01;21.30;96.90
56512;DHT22;42408;53.238;5.686;2022-08-05T15:50:27;21.30;96.20
56512;DHT22;42408;53.238;5.686;2022-08-05T15:52:53;21.40;95.80
56512;DHT22;42408;53.238;5.686;2022-08-05T15:55:18;21.50;95.80
56512;DHT22;42408;53.238;5.686;2022-08-05T15:57:44;21.50;95.20
56512;DHT22;42408;53.238;5.686;2022-08-05T16:00:11;21.40;94.70
56512;DHT22;42408;53.238;5.686;2022-08-05T16:02:37;21.40;94.60
56512;DHT22;42408;53.238;5.686;2022-08-05T16:05:03;21.40;95.10
56512;DHT22;42408;53.238;5.686;2022-08-05T16:07:31;21.50;95.70
56512;DHT22;42408;53.238;5.686;2022-08-05T16:09:57;21.50;94.10
56512;DHT22;42408;53.238;5.686;2022-08-05T16:12:23;21.40;93.80
56512;DHT22;42408;53.238;5.686;2022-08-05T16:14:51;21.40;94.20
56512;DHT22;42408;53.238;5.686;2022-08-05T16:17:17;21.40;94.10